Timberhurst, Indiana
Current Conditions -  °F | °C
As of 7:35 AM on Sunday 25 Jan 2015 (Local Time) from KANQ Reporting Station
Overcast Overcast  
Wind Chill: 29°   Ceiling: 1000
Heat Index: 34°   Visibility: 7mi
Dew Point: 25°   Wind: 6mph
Humidity: 70%   Direction: 70°ENE
Pressure: 29.72"   Gusts: NA
Location:  41.5677°N, 85.3125°W
Report Text: KANQ 251235Z AUTO 07005KT 7SM BKN010 OVC013 01/M04 A2972 RMK
Loading
Personal Weather Stations






























Interactive Weather Map New forecast layout! Learn more

10-Day Weather Forecast

Advertisements
Track Severe Weather on mobile